This is the latest recevied weather packets stored in our database for station/object BMCB-35. If no packets are shown the sender has not sent any weather packets the latest 10 day(s).
| Time | Temp. | Humidity | Pressure | Rain* | Wind** | Luminosity | Snow |
|---|---|---|---|---|---|---|---|
| 1777814410 | 16.11° C | 66% | 1014.8 hPa | 0 mm | - | 154 W/m² | - |
| 1777813831 | 16.67° C | 61% | 1014.8 hPa | 0 mm | - | 159 W/m² | - |
| 1777813213 | 17.22° C | 56% | 1014.6 hPa | 0 mm | - | 147 W/m² | - |
| 1777810834 | 18.33° C | 47% | 1014.1 hPa | 0 mm | - | 384 W/m² | - |
| 1777805430 | 16.67° C | 53% | 1014.5 hPa | 0 mm | - | 408 W/m² | - |
| 1777803005 | 16.67° C | 53% | 1014.6 hPa | 0 mm | - | 226 W/m² | - |
| 1777797012 | 18.33° C | 42% | 1014.2 hPa | 0 mm | - | 501 W/m² | - |
| 1777795808 | 17.78° C | 42% | 1014.2 hPa | 0 mm | - | 441 W/m² | - |
| 1777795229 | 17.78° C | 42% | 1014.2 hPa | 0 mm | - | 367 W/m² | - |
| 1777792214 | 16.11° C | 47% | 1014.2 hPa | 0 mm | - | 135 W/m² | - |
| 1777776605 | 12.78° C | 60% | 1014.6 hPa | 0 mm | - | 0 W/m² | - |
| 1777776019 | 12.78° C | 64% | 1014.7 hPa | 0 mm | - | 0 W/m² | - |
| 1777769408 | 13.33° C | 63% | 1015.2 hPa | 0 mm | - | 0 W/m² | - |
| 1777767613 | 13.89° C | 59% | 1015.4 hPa | 0 mm | - | 0 W/m² | - |
| 1777762838 | 17.78° C | 41% | 1015.3 hPa | 0 mm | - | 0 W/m² | - |
| 1777761009 | 18.33° C | 40% | 1015.2 hPa | 0 mm | - | 0 W/m² | - |
| 1777759815 | 17.22° C | 47% | 1015.4 hPa | 0 mm | - | 0 W/m² | - |
| 1777759212 | 16.67° C | 48% | 1015.5 hPa | 0 mm | - | 0 W/m² | - |
| 1777754405 | 15.56° C | 55% | 1015.7 hPa | 0 mm | - | 0 W/m² | - |
| 1777753236 | 16.11° C | 54% | 1015.6 hPa | 0 mm | - | 0 W/m² | - |
| 1777750239 | 17.22° C | 53% | 1015.3 hPa | 0 mm | - | 0 W/m² | - |
| 1777746639 | 20° C | 48% | 1014.9 hPa | 0 mm | - | 22 W/m² | - |
| 1777743641 | 23.33° C | 36% | 1014.7 hPa | 0 mm | - | 103 W/m² | - |
| 1777740024 | 25° C | 28% | 1014.8 hPa | 0 mm | - | 235 W/m² | - |
| 1777739439 | 25° C | 27% | 1014.9 hPa | 0 mm | - | 247 W/m² | - |
* Rain latest hour (hover to see other rain measurements)
** Current wind speed in m/s (hover to see current wind gust speed)